createdAt,value
2022-09-15T00:01:44.253Z,94759.00
2022-09-15T00:04:12.854Z,94752.00
2022-09-15T00:06:42.803Z,94754.00
2022-09-15T00:09:11.256Z,94467.00
2022-09-15T00:11:40.083Z,94761.00
2022-09-15T00:14:10.186Z,94754.00
2022-09-15T00:16:39.615Z,94747.00
2022-09-15T00:19:08.115Z,94754.00
2022-09-15T00:21:42.872Z,94708.00
2022-09-15T00:24:12.274Z,94791.00
2022-09-15T00:26:40.818Z,94605.00
2022-09-15T00:29:09.361Z,94731.00
2022-09-15T00:31:37.830Z,94641.00
2022-09-15T00:34:07.214Z,94760.00
2022-09-15T00:36:36.015Z,94679.00
2022-09-15T00:39:06.272Z,94657.00
2022-09-15T00:41:35.048Z,94803.00
2022-09-15T00:44:07.058Z,94778.00
2022-09-15T00:46:40.085Z,94771.00
2022-09-15T00:49:15.244Z,94587.00
2022-09-15T00:51:50.563Z,94763.00
2022-09-15T00:54:25.214Z,94765.00
2022-09-15T00:56:57.510Z,94775.00
2022-09-15T00:59:30.139Z,94754.00
2022-09-15T01:02:08.918Z,94757.00
2022-09-15T01:04:37.425Z,94579.00
2022-09-15T01:07:12.188Z,94759.00
2022-09-15T01:09:51.885Z,94570.00
2022-09-15T01:12:22.041Z,94749.00
2022-09-15T01:14:50.536Z,94743.00
2022-09-15T01:17:35.609Z,94738.00
2022-09-15T01:20:51.897Z,94755.00
2022-09-15T01:23:54.087Z,94745.00
2022-09-15T01:27:13.707Z,94742.00
2022-09-15T01:30:09.572Z,94743.00
2022-09-15T01:33:05.407Z,94731.00
2022-09-15T01:35:54.433Z,94619.00
2022-09-15T01:38:42.382Z,94751.00
2022-09-15T01:41:17.193Z,94547.00
2022-09-15T01:43:52.734Z,94724.00
2022-09-15T01:46:28.865Z,94750.00
2022-09-15T01:49:01.690Z,94729.00
2022-09-15T01:51:32.428Z,94729.00
2022-09-15T01:54:04.925Z,94737.00
2022-09-15T01:56:33.720Z,94761.00
2022-09-15T01:59:02.189Z,94735.00
2022-09-15T02:01:40.744Z,94717.00
2022-09-15T02:04:19.088Z,94722.00
2022-09-15T02:06:56.793Z,94737.00
2022-09-15T02:09:33.909Z,94516.00
2022-09-15T02:12:14.063Z,94723.00
2022-09-15T02:14:56.827Z,94722.00
2022-09-15T02:17:32.766Z,94591.00
2022-09-15T02:20:15.601Z,94711.00
2022-09-15T02:22:50.474Z,94615.00
2022-09-15T02:25:24.084Z,94303.00
2022-09-15T02:27:56.566Z,94713.00
2022-09-15T02:30:25.601Z,94718.00
2022-09-15T02:33:00.482Z,94603.00
2022-09-15T02:35:33.246Z,94563.00
2022-09-15T02:38:03.193Z,94675.00
2022-09-15T02:40:33.394Z,94707.00
2022-09-15T02:43:05.469Z,94706.00
2022-09-15T02:45:34.171Z,94697.00
2022-09-15T02:48:04.747Z,94697.00
2022-09-15T02:50:33.360Z,94700.00
2022-09-15T02:53:02.815Z,94533.00
2022-09-15T02:55:31.330Z,94700.00
2022-09-15T02:58:00.696Z,94357.00
2022-09-15T03:00:31.238Z,94703.00
2022-09-15T03:03:00.000Z,94469.00
2022-09-15T03:05:31.664Z,94696.00
2022-09-15T03:08:00.897Z,94496.00
2022-09-15T03:10:29.433Z,94599.00
2022-09-15T03:12:57.860Z,94703.00
2022-09-15T03:15:27.681Z,94742.00
2022-09-15T03:17:56.789Z,94696.00
2022-09-15T03:20:28.226Z,94692.00
2022-09-15T03:22:58.062Z,94683.00
2022-09-15T03:25:27.564Z,94697.00
2022-09-15T03:27:56.190Z,94697.00
2022-09-15T03:30:24.683Z,94691.00
2022-09-15T03:32:53.333Z,94704.00
2022-09-15T03:35:21.718Z,94697.00
2022-09-15T03:37:50.111Z,94699.00
2022-09-15T03:40:20.007Z,94693.00
2022-09-15T03:42:48.465Z,94618.00
2022-09-15T03:45:17.096Z,94703.00
2022-09-15T03:47:45.504Z,94698.00
2022-09-15T03:50:13.903Z,94698.00
2022-09-15T03:52:42.330Z,94701.00
2022-09-15T03:55:11.223Z,94699.00
2022-09-15T03:57:41.003Z,94706.00
2022-09-15T04:00:11.394Z,94513.00
2022-09-15T04:02:39.809Z,94708.00
2022-09-15T04:05:09.749Z,94705.00
2022-09-15T04:07:38.245Z,94703.00
2022-09-15T04:10:07.859Z,94694.00
2022-09-15T04:12:36.963Z,94694.00
2022-09-15T04:15:08.341Z,94689.00
2022-09-15T04:17:36.761Z,94693.00
2022-09-15T04:20:05.809Z,94728.00
2022-09-15T04:22:34.394Z,94690.00
2022-09-15T04:25:02.894Z,94377.00
2022-09-15T04:27:34.373Z,94730.00
2022-09-15T04:30:03.022Z,94684.00
2022-09-15T04:32:32.873Z,94606.00
2022-09-15T04:35:01.302Z,94680.00
2022-09-15T04:37:29.746Z,94696.00
2022-09-15T04:39:58.244Z,94455.00
2022-09-15T04:42:27.102Z,94624.00
2022-09-15T04:44:55.530Z,94688.00
2022-09-15T04:47:23.957Z,94684.00
2022-09-15T04:49:53.726Z,94680.00
2022-09-15T04:52:22.146Z,94557.00
2022-09-15T04:54:50.570Z,94671.00
2022-09-15T04:57:19.045Z,94385.00
2022-09-15T04:59:47.511Z,94497.00
2022-09-15T05:02:16.033Z,94679.00
2022-09-15T05:04:44.823Z,94674.00
2022-09-15T05:07:14.608Z,94677.00
2022-09-15T05:09:42.970Z,94697.00
2022-09-15T05:12:11.361Z,94450.00
2022-09-15T05:14:39.831Z,94679.00
2022-09-15T05:17:08.262Z,94683.00
2022-09-15T05:19:36.819Z,94677.00
2022-09-15T05:22:05.991Z,94685.00
2022-09-15T05:24:35.872Z,94690.00
2022-09-15T05:27:04.511Z,94608.00
2022-09-15T05:29:32.928Z,94690.00
2022-09-15T05:32:01.325Z,94694.00
2022-09-15T05:34:29.703Z,94691.00
2022-09-15T05:36:58.717Z,94693.00
2022-09-15T05:39:27.086Z,94690.00
2022-09-15T05:41:56.833Z,94689.00
2022-09-15T05:44:25.457Z,94691.00
2022-09-15T05:46:53.902Z,94444.00
2022-09-15T05:49:22.325Z,94698.00
2022-09-15T05:51:50.762Z,94694.00
2022-09-15T05:54:19.192Z,94702.00
2022-09-15T05:56:47.789Z,94746.00
2022-09-15T05:59:18.029Z,94547.00
2022-09-15T06:01:46.479Z,94702.00
2022-09-15T06:04:14.940Z,94704.00
2022-09-15T06:06:43.292Z,94702.00
2022-09-15T06:09:11.723Z,94701.00
2022-09-15T06:11:40.107Z,94703.00
2022-09-15T06:14:08.564Z,94712.00
2022-09-15T06:16:39.122Z,94706.00
2022-09-15T06:19:07.557Z,94693.00
2022-09-15T06:21:36.071Z,94706.00
2022-09-15T06:24:07.365Z,94703.00
2022-09-15T06:26:36.217Z,94702.00
2022-09-15T06:29:06.172Z,94700.00
2022-09-15T06:31:37.135Z,94711.00
2022-09-15T06:34:06.746Z,94708.00
2022-09-15T06:36:37.993Z,94709.00
2022-09-15T06:39:06.869Z,94711.00
2022-09-15T06:41:52.857Z,94718.00
2022-09-15T06:44:23.787Z,94723.00
2022-09-15T06:46:53.553Z,94723.00
2022-09-15T06:49:22.828Z,94658.00
2022-09-15T06:51:51.224Z,94724.00
2022-09-15T06:54:19.906Z,94723.00
2022-09-15T06:56:48.338Z,94730.00
2022-09-15T06:59:18.828Z,94729.00
2022-09-15T07:01:47.354Z,94727.00
2022-09-15T07:04:17.163Z,94717.00
2022-09-15T07:06:45.942Z,94713.00
2022-09-15T07:09:14.745Z,94716.00
2022-09-15T07:11:43.191Z,94724.00
2022-09-15T07:14:12.503Z,94469.00
2022-09-15T07:16:41.001Z,94726.00
2022-09-15T07:19:09.440Z,94730.00
2022-09-15T07:21:39.207Z,94723.00
2022-09-15T07:24:10.426Z,94722.00
2022-09-15T07:26:39.627Z,94729.00
2022-09-15T07:29:08.412Z,94737.00
2022-09-15T07:31:39.977Z,94640.00
2022-09-15T07:34:09.227Z,94776.00
2022-09-15T07:36:39.075Z,94750.00
2022-09-15T07:39:07.678Z,94760.00
2022-09-15T07:41:36.067Z,94767.00
2022-09-15T07:44:04.892Z,94772.00
2022-09-15T07:46:34.311Z,94770.00
2022-09-15T07:49:03.966Z,94776.00
2022-09-15T07:51:32.666Z,94796.00
2022-09-15T07:54:02.573Z,94776.00
2022-09-15T07:56:30.966Z,94775.00
2022-09-15T07:58:59.536Z,94772.00
2022-09-15T08:01:28.160Z,94778.00
2022-09-15T08:03:56.545Z,94786.00
2022-09-15T08:06:27.621Z,94813.00
2022-09-15T08:09:00.377Z,94792.00
2022-09-15T08:11:31.658Z,94801.00
2022-09-15T08:14:03.426Z,94779.00
2022-09-15T08:16:32.228Z,94796.00
2022-09-15T08:19:01.085Z,94834.00
2022-09-15T08:21:29.720Z,94805.00
2022-09-15T08:24:01.221Z,94801.00
2022-09-15T08:26:31.485Z,94801.00
2022-09-15T08:29:00.737Z,94807.00
2022-09-15T08:31:29.338Z,94571.00
2022-09-15T08:33:58.246Z,94809.00
2022-09-15T08:36:28.374Z,94818.00
2022-09-15T08:38:57.201Z,94678.00
2022-09-15T08:41:33.388Z,94745.00
2022-09-15T08:44:17.808Z,94816.00
2022-09-15T08:46:53.644Z,94829.00
2022-09-15T08:49:49.982Z,94825.00
2022-09-15T08:52:24.403Z,94864.00
2022-09-15T08:54:57.132Z,94823.00
2022-09-15T08:57:27.670Z,94684.00
2022-09-15T08:59:56.384Z,94829.00
2022-09-15T09:03:04.339Z,94836.00
2022-09-15T09:05:48.681Z,94823.00
2022-09-15T09:09:13.330Z,94829.00
2022-09-15T09:12:14.422Z,94828.00
2022-09-15T09:15:04.400Z,94824.00
2022-09-15T09:18:13.426Z,94824.00
2022-09-15T09:20:56.574Z,94532.00
2022-09-15T09:23:31.156Z,94859.00
2022-09-15T09:26:02.035Z,94818.00
2022-09-15T09:28:37.941Z,94835.00
2022-09-15T09:31:18.461Z,94815.00
2022-09-15T09:33:54.571Z,94818.00
2022-09-15T09:36:23.268Z,94423.00
2022-09-15T09:38:52.307Z,94819.00
2022-09-15T09:41:28.613Z,94664.00
2022-09-15T09:43:59.718Z,94500.00
2022-09-15T09:46:29.735Z,94810.00
2022-09-15T09:49:05.741Z,94809.00
2022-09-15T09:51:38.292Z,94875.00
2022-09-15T09:54:20.587Z,94831.00
2022-09-15T09:56:50.713Z,94811.00
2022-09-15T09:59:45.098Z,94828.00
2022-09-15T10:02:19.930Z,94631.00
2022-09-15T10:04:50.970Z,94706.00
2022-09-15T10:07:24.328Z,94651.00
2022-09-15T10:09:59.353Z,94707.00
2022-09-15T10:12:34.262Z,94743.00
2022-09-15T10:15:07.009Z,94844.00
2022-09-15T10:17:47.013Z,94579.00
2022-09-15T10:20:32.574Z,94798.00
2022-09-15T10:23:07.463Z,94815.00
2022-09-15T10:25:58.097Z,94795.00
2022-09-15T10:28:29.251Z,94796.00
2022-09-15T10:31:06.350Z,94611.00
2022-09-15T10:33:38.748Z,94829.00
2022-09-15T10:36:14.148Z,94793.00
2022-09-15T10:38:46.684Z,94791.00
2022-09-15T10:41:29.086Z,94793.00
2022-09-15T10:44:28.648Z,94591.00
2022-09-15T10:47:13.556Z,94792.00
2022-09-15T10:50:08.762Z,94797.00
2022-09-15T10:53:01.177Z,94673.00
2022-09-15T10:55:52.645Z,94809.00
2022-09-15T10:58:58.722Z,94787.00
2022-09-15T11:02:01.942Z,94788.00
2022-09-15T11:05:13.075Z,94786.00
2022-09-15T11:07:54.283Z,94783.00
2022-09-15T11:10:33.823Z,94775.00
2022-09-15T11:13:13.589Z,94775.00
2022-09-15T11:16:06.700Z,94799.00
2022-09-15T11:19:11.556Z,94761.00
2022-09-15T11:21:46.710Z,94759.00
2022-09-15T11:24:32.729Z,94762.00
2022-09-15T11:27:13.179Z,94768.00
2022-09-15T11:30:02.915Z,94769.00
2022-09-15T11:32:39.486Z,94800.00
2022-09-15T11:35:33.969Z,94774.00
2022-09-15T11:38:30.140Z,94553.00
2022-09-15T11:41:20.410Z,94611.00
2022-09-15T11:44:06.225Z,94713.00
2022-09-15T11:46:57.397Z,94588.00
2022-09-15T11:49:34.617Z,94720.00
2022-09-15T11:52:13.683Z,94645.00
2022-09-15T11:54:51.193Z,94422.00
2022-09-15T11:57:26.835Z,94807.00
2022-09-15T12:00:03.677Z,94809.00
2022-09-15T12:02:41.228Z,94813.00
2022-09-15T12:05:15.975Z,94821.00
2022-09-15T12:07:52.252Z,94818.00
2022-09-15T12:10:30.248Z,94824.00
2022-09-15T12:13:02.649Z,94829.00
2022-09-15T12:15:31.462Z,94846.00
2022-09-15T12:18:38.143Z,94835.00
2022-09-15T12:21:19.683Z,94851.00
2022-09-15T12:23:59.584Z,94850.00
2022-09-15T12:26:30.889Z,94665.00
2022-09-15T12:29:02.486Z,94851.00
2022-09-15T12:31:39.334Z,94865.00
2022-09-15T12:34:36.944Z,94777.00
2022-09-15T12:37:13.905Z,94854.00
2022-09-15T12:39:44.524Z,94619.00
2022-09-15T12:42:20.923Z,94856.00
2022-09-15T12:44:55.806Z,94860.00
2022-09-15T12:47:35.539Z,94851.00
2022-09-15T12:50:22.921Z,94885.00
2022-09-15T12:52:54.618Z,94869.00
2022-09-15T12:55:26.894Z,94869.00
2022-09-15T12:58:00.749Z,94871.00
2022-09-15T13:00:33.699Z,94866.00
2022-09-15T13:03:03.643Z,94865.00
2022-09-15T13:06:14.958Z,94868.00
2022-09-15T13:08:56.419Z,94876.00
2022-09-15T13:11:40.312Z,94882.00
2022-09-15T13:14:22.572Z,94952.00
2022-09-15T13:16:58.359Z,94898.00
2022-09-15T13:19:41.085Z,94746.00
2022-09-15T13:22:27.284Z,94668.00
2022-09-15T13:25:02.724Z,94693.00
2022-09-15T13:27:37.833Z,94902.00
2022-09-15T13:30:46.970Z,94689.00
2022-09-15T13:40:27.393Z,94777.00
2022-09-15T13:43:44.510Z,94906.00
2022-09-15T13:46:29.217Z,94913.00
2022-09-15T13:49:32.839Z,94912.00
2022-09-15T13:52:15.336Z,94917.00
2022-09-15T13:55:10.121Z,94933.00
2022-09-15T14:00:34.941Z,94933.00
2022-09-15T14:03:15.491Z,94928.00
2022-09-15T14:05:45.254Z,94963.00
2022-09-15T14:08:20.981Z,94928.00
2022-09-15T14:10:55.710Z,94925.00
2022-09-15T14:13:27.842Z,94928.00
2022-09-15T14:16:02.603Z,94934.00
2022-09-15T14:18:43.647Z,94909.00
2022-09-15T14:21:20.182Z,95035.00
2022-09-15T14:23:50.830Z,94937.00
2022-09-15T14:26:23.517Z,94851.00
2022-09-15T14:28:56.325Z,95019.00
2022-09-15T14:31:34.646Z,94987.00
2022-09-15T14:34:08.550Z,94955.00
2022-09-15T14:36:37.286Z,94876.00
2022-09-15T14:39:21.573Z,94963.00
2022-09-15T14:41:51.749Z,94950.00
2022-09-15T14:47:23.097Z,94952.00
2022-09-15T14:50:08.622Z,94867.00
2022-09-15T14:52:42.092Z,94916.00
2022-09-15T14:55:19.003Z,94948.00
2022-09-15T14:57:57.663Z,94963.00
2022-09-15T15:00:32.163Z,94993.00
2022-09-15T15:03:19.105Z,94958.00
2022-09-15T15:06:02.777Z,94842.00
2022-09-15T15:08:42.352Z,94764.00
2022-09-15T15:11:15.330Z,94811.00
2022-09-15T15:13:50.014Z,94969.00
2022-09-15T15:16:24.695Z,94973.00
2022-09-15T15:18:56.125Z,94978.00
2022-09-15T15:21:48.247Z,94972.00
2022-09-15T15:24:21.298Z,94966.00
2022-09-15T15:26:51.415Z,94981.00
2022-09-15T15:29:43.163Z,94968.00
2022-09-15T15:32:15.973Z,94966.00
2022-09-15T15:34:52.081Z,95019.00
2022-09-15T15:37:30.942Z,94968.00
2022-09-15T15:40:06.320Z,94699.00
2022-09-15T15:42:35.645Z,94756.00
2022-09-15T15:45:23.019Z,94969.00
2022-09-15T15:47:52.060Z,94999.00
2022-09-15T15:50:24.737Z,94960.00
2022-09-15T15:52:55.240Z,94974.00
2022-09-15T15:55:26.830Z,95008.00
2022-09-15T15:57:56.571Z,94986.00
2022-09-15T16:00:29.668Z,94985.00
2022-09-15T16:02:58.246Z,94852.00
2022-09-15T16:05:29.776Z,94895.00
2022-09-15T16:08:05.712Z,94999.00
2022-09-15T16:10:43.025Z,94996.00
2022-09-15T16:13:16.640Z,94829.00
2022-09-15T16:15:46.405Z,95003.00
2022-09-15T16:18:15.980Z,95019.00
2022-09-15T16:20:45.261Z,94860.00
2022-09-15T16:23:18.090Z,94790.00
2022-09-15T16:25:54.547Z,94878.00
2022-09-15T16:28:23.289Z,95034.00
2022-09-15T16:30:51.715Z,94997.00
2022-09-15T16:33:20.945Z,95001.00
2022-09-15T16:35:55.037Z,95029.00
2022-09-15T16:38:28.349Z,95009.00
2022-09-15T16:40:57.048Z,95085.00
2022-09-15T16:43:25.468Z,95015.00
2022-09-15T16:45:54.631Z,95039.00
2022-09-15T16:48:23.338Z,95020.00
2022-09-15T16:53:41.934Z,95013.00
2022-09-15T16:56:13.202Z,95020.00
2022-09-15T16:58:43.270Z,94991.00
2022-09-15T17:01:19.748Z,95020.00
2022-09-15T17:03:49.333Z,95020.00
2022-09-15T17:06:18.790Z,95022.00
2022-09-15T17:08:49.026Z,95038.00
2022-09-15T17:11:21.071Z,95059.00
2022-09-15T17:13:50.018Z,95026.00
2022-09-15T17:16:20.772Z,95030.00
2022-09-15T17:18:49.622Z,95095.00
2022-09-15T17:21:19.796Z,94816.00
2022-09-15T17:23:51.295Z,95040.00
2022-09-15T17:26:24.634Z,95054.00
2022-09-15T17:28:55.559Z,94658.00
2022-09-15T17:31:26.068Z,94877.00
2022-09-15T17:33:54.808Z,95046.00
2022-09-15T17:36:23.206Z,95050.00
2022-09-15T17:38:53.016Z,95046.00
2022-09-15T17:41:23.613Z,94997.00
2022-09-15T17:43:52.152Z,95060.00
2022-09-15T17:46:20.677Z,94423.00
2022-09-15T17:48:49.207Z,94824.00
2022-09-15T17:51:19.243Z,95067.00
2022-09-15T17:53:47.926Z,95070.00
2022-09-15T17:56:17.813Z,95076.00
2022-09-15T17:58:46.211Z,95079.00
2022-09-15T18:01:16.456Z,95067.00
2022-09-15T18:03:46.911Z,95073.00
2022-09-15T18:06:15.382Z,95066.00
2022-09-15T18:08:44.418Z,94481.00
2022-09-15T18:11:17.161Z,95072.00
2022-09-15T18:13:45.966Z,95111.00
2022-09-15T18:16:16.397Z,94698.00
2022-09-15T18:18:44.974Z,95071.00
2022-09-15T18:21:27.888Z,95073.00
2022-09-15T18:23:57.016Z,94993.00
2022-09-15T18:26:27.091Z,94991.00
2022-09-15T18:28:56.999Z,94720.00
2022-09-15T18:31:25.529Z,95087.00
2022-09-15T18:33:54.042Z,95093.00
2022-09-15T18:36:22.499Z,95093.00
2022-09-15T18:38:51.009Z,94934.00
2022-09-15T18:41:19.591Z,94658.00
2022-09-15T18:43:50.116Z,95037.00
2022-09-15T18:46:21.510Z,95100.00
2022-09-15T18:48:50.348Z,95101.00
2022-09-15T18:51:24.143Z,95113.00
2022-09-15T18:53:58.456Z,95104.00
2022-09-15T18:56:26.978Z,95104.00
2022-09-15T18:59:02.194Z,95112.00
2022-09-15T19:01:34.630Z,95114.00
2022-09-15T19:04:03.736Z,95121.00
2022-09-15T19:06:32.189Z,95124.00
2022-09-15T19:09:00.887Z,94931.00
2022-09-15T19:11:29.418Z,94988.00
2022-09-15T19:13:59.324Z,95123.00
2022-09-15T19:16:46.604Z,95145.00
2022-09-15T19:19:17.135Z,94584.00
2022-09-15T19:21:45.557Z,95126.00
2022-09-15T19:24:14.331Z,95129.00
2022-09-15T19:26:42.948Z,95154.00
2022-09-15T19:29:12.782Z,95127.00
2022-09-15T19:31:42.259Z,94901.00
2022-09-15T19:34:11.268Z,95131.00
2022-09-15T19:36:39.860Z,94995.00
2022-09-15T19:39:08.312Z,95120.00
2022-09-15T19:41:36.689Z,95130.00
2022-09-15T19:44:05.155Z,95126.00
2022-09-15T19:46:35.051Z,95130.00
2022-09-15T19:49:03.944Z,95136.00
2022-09-15T19:51:32.709Z,94788.00
2022-09-15T19:54:01.832Z,95137.00
2022-09-15T19:56:31.143Z,95055.00
2022-09-15T19:59:01.157Z,95142.00
2022-09-15T20:01:37.166Z,95146.00
2022-09-15T20:04:05.650Z,95138.00
2022-09-15T20:06:34.076Z,95139.00
2022-09-15T20:09:02.621Z,95141.00
2022-09-15T20:11:32.417Z,95148.00
2022-09-15T20:14:02.086Z,95144.00
2022-09-15T20:16:31.992Z,95142.00
2022-09-15T20:19:04.149Z,95047.00
2022-09-15T20:21:49.800Z,95137.00
2022-09-15T20:24:20.039Z,94804.00
2022-09-15T20:26:49.027Z,95022.00
2022-09-15T20:29:17.818Z,94970.00
2022-09-15T20:31:46.298Z,95016.00
2022-09-15T20:34:16.659Z,95137.00
2022-09-15T20:36:45.184Z,94448.00
2022-09-15T20:39:16.405Z,95181.00
2022-09-15T20:41:45.787Z,95166.00
2022-09-15T20:44:17.787Z,94780.00
2022-09-15T20:46:46.199Z,94625.00
2022-09-15T20:49:16.208Z,95148.00
2022-09-15T20:51:45.315Z,95035.00
2022-09-15T20:54:13.812Z,95149.00
2022-09-15T20:56:42.318Z,95178.00
2022-09-15T20:59:15.522Z,95065.00
2022-09-15T21:01:44.656Z,95150.00
2022-09-15T21:04:13.778Z,94923.00
2022-09-15T21:06:43.605Z,94794.00
2022-09-15T21:09:12.626Z,94989.00
2022-09-15T21:11:43.270Z,95152.00
2022-09-15T21:14:14.409Z,95187.00
2022-09-15T21:16:43.340Z,95158.00
2022-09-15T21:19:12.773Z,95020.00
2022-09-15T21:21:41.255Z,95150.00
2022-09-15T21:24:11.456Z,95160.00
2022-09-15T21:26:56.301Z,95194.00
2022-09-15T21:29:25.216Z,94885.00
2022-09-15T21:31:54.020Z,95008.00
2022-09-15T21:34:22.831Z,95071.00
2022-09-15T21:36:51.799Z,94933.00
2022-09-15T21:39:21.663Z,95174.00
2022-09-15T21:41:50.301Z,95127.00
2022-09-15T21:44:18.766Z,95004.00
2022-09-15T21:46:47.651Z,95170.00
2022-09-15T21:49:18.079Z,95172.00
2022-09-15T21:51:46.459Z,95170.00
2022-09-15T21:54:15.524Z,95182.00
2022-09-15T21:56:45.325Z,95166.00
2022-09-15T21:59:14.313Z,95019.00
2022-09-15T22:01:43.198Z,94754.00
2022-09-15T22:04:12.303Z,95174.00
2022-09-15T22:06:42.215Z,95092.00
2022-09-15T22:09:15.969Z,95235.00
2022-09-15T22:11:45.719Z,94905.00
2022-09-15T22:14:14.409Z,95169.00
2022-09-15T22:16:43.998Z,95185.00
2022-09-15T22:19:13.358Z,94906.00
2022-09-15T22:21:42.653Z,95047.00
2022-09-15T22:24:13.540Z,95192.00
2022-09-15T22:26:43.896Z,95202.00
2022-09-15T22:29:13.844Z,94908.00
2022-09-15T22:31:42.700Z,95168.00
2022-09-15T22:34:11.587Z,94920.00
2022-09-15T22:36:40.246Z,95175.00
2022-09-15T22:39:08.722Z,95170.00
2022-09-15T22:41:40.389Z,95195.00
2022-09-15T22:44:20.401Z,95167.00
2022-09-15T22:46:51.456Z,95010.00
2022-09-15T22:49:19.945Z,94940.00
2022-09-15T22:51:48.413Z,94869.00
2022-09-15T22:54:17.062Z,95157.00
2022-09-15T22:56:47.206Z,95131.00
2022-09-15T22:59:15.781Z,95051.00
2022-09-15T23:01:45.763Z,94986.00
2022-09-15T23:04:14.149Z,94642.00
2022-09-15T23:06:42.851Z,95159.00
2022-09-15T23:09:13.100Z,95156.00
2022-09-15T23:11:41.976Z,95031.00
2022-09-15T23:14:16.257Z,95151.00
2022-09-15T23:16:46.374Z,95142.00
2022-09-15T23:19:15.794Z,95152.00
2022-09-15T23:21:44.210Z,94985.00
2022-09-15T23:24:14.059Z,95145.00
2022-09-15T23:26:42.480Z,95176.00
2022-09-15T23:29:11.240Z,94974.00
2022-09-15T23:31:39.690Z,95104.00
2022-09-15T23:34:09.539Z,95152.00
2022-09-15T23:36:38.072Z,95144.00
2022-09-15T23:39:06.506Z,94942.00
2022-09-15T23:41:36.826Z,94995.00
2022-09-15T23:44:05.353Z,95091.00
2022-09-15T23:46:34.158Z,95148.00
2022-09-15T23:49:02.782Z,95017.00
2022-09-15T23:51:32.698Z,95148.00
2022-09-15T23:54:01.939Z,95145.00
2022-09-15T23:56:30.575Z,95184.00
2022-09-15T23:58:59.008Z,94935.00
